sensor_id;sensor_type;location;lat;lon;timestamp;temperature;humidity
27667;DHT22;15074;50.940;5.282;2022-11-20T00:26:34;4.20;99.90
27667;DHT22;15074;50.940;5.282;2022-11-20T00:29:01;4.10;99.90
27667;DHT22;15074;50.940;5.282;2022-11-20T00:31:27;4.10;99.90
27667;DHT22;15074;50.940;5.282;2022-11-20T00:33:53;4.20;99.90
27667;DHT22;15074;50.940;5.282;2022-11-20T00:36:21;4.00;99.90
27667;DHT22;15074;50.940;5.282;2022-11-20T00:38:51;3.90;99.90
27667;DHT22;15074;50.940;5.282;2022-11-20T00:58:31;3.80;99.90
27667;DHT22;15074;50.940;5.282;2022-11-20T01:01:06;4.00;99.90
27667;DHT22;15074;50.940;5.282;2022-11-20T01:03:36;4.00;99.90
27667;DHT22;15074;50.940;5.282;2022-11-20T01:06:04;4.00;99.90
27667;DHT22;15074;50.940;5.282;2022-11-20T01:08:31;4.10;99.90
27667;DHT22;15074;50.940;5.282;2022-11-20T01:11:05;4.00;99.90
27667;DHT22;15074;50.940;5.282;2022-11-20T01:13:32;4.00;99.90
27667;DHT22;15074;50.940;5.282;2022-11-20T01:18:39;4.10;99.90
27667;DHT22;15074;50.940;5.282;2022-11-20T01:21:08;4.20;99.90
27667;DHT22;15074;50.940;5.282;2022-11-20T01:23:37;4.30;99.90
27667;DHT22;15074;50.940;5.282;2022-11-20T01:26:06;4.30;99.90
27667;DHT22;15074;50.940;5.282;2022-11-20T01:28:32;4.50;99.90
27667;DHT22;15074;50.940;5.282;2022-11-20T01:30:58;4.40;99.90
27667;DHT22;15074;50.940;5.282;2022-11-20T01:33:24;4.50;99.90
27667;DHT22;15074;50.940;5.282;2022-11-20T01:35:50;4.60;99.90
27667;DHT22;15074;50.940;5.282;2022-11-20T01:38:16;4.70;99.90
27667;DHT22;15074;50.940;5.282;2022-11-20T01:40:42;4.60;99.90
27667;DHT22;15074;50.940;5.282;2022-11-20T01:43:17;4.60;99.90
27667;DHT22;15074;50.940;5.282;2022-11-20T01:48:12;4.50;99.90
27667;DHT22;15074;50.940;5.282;2022-11-20T01:50:38;4.60;99.90
27667;DHT22;15074;50.940;5.282;2022-11-20T01:53:10;4.60;99.90
27667;DHT22;15074;50.940;5.282;2022-11-20T01:55:40;4.50;99.90
27667;DHT22;15074;50.940;5.282;2022-11-20T01:58:07;4.50;99.90
27667;DHT22;15074;50.940;5.282;2022-11-20T02:00:32;4.50;99.90
27667;DHT22;15074;50.940;5.282;2022-11-20T02:03:02;4.60;99.90
27667;DHT22;15074;50.940;5.282;2022-11-20T02:08:15;4.60;99.90
27667;DHT22;15074;50.940;5.282;2022-11-20T02:10:41;4.70;99.90
27667;DHT22;15074;50.940;5.282;2022-11-20T02:13:07;4.70;99.90
27667;DHT22;15074;50.940;5.282;2022-11-20T02:15:52;4.80;99.90
27667;DHT22;15074;50.940;5.282;2022-11-20T02:18:20;4.80;99.90
27667;DHT22;15074;50.940;5.282;2022-11-20T02:20:48;4.90;99.90
27667;DHT22;15074;50.940;5.282;2022-11-20T02:23:28;4.80;99.90
27667;DHT22;15074;50.940;5.282;2022-11-20T02:25:55;4.80;99.90
27667;DHT22;15074;50.940;5.282;2022-11-20T02:28:22;4.90;99.90
27667;DHT22;15074;50.940;5.282;2022-11-20T02:30:48;4.90;99.90
27667;DHT22;15074;50.940;5.282;2022-11-20T02:33:14;4.90;99.90
27667;DHT22;15074;50.940;5.282;2022-11-20T02:35:43;4.90;99.90
27667;DHT22;15074;50.940;5.282;2022-11-20T02:38:09;4.90;99.90
27667;DHT22;15074;50.940;5.282;2022-11-20T02:40:35;5.00;99.90
27667;DHT22;15074;50.940;5.282;2022-11-20T02:43:01;5.00;99.90
27667;DHT22;15074;50.940;5.282;2022-11-20T02:45:27;5.10;99.90
27667;DHT22;15074;50.940;5.282;2022-11-20T02:47:53;4.80;99.90
27667;DHT22;15074;50.940;5.282;2022-11-20T02:50:18;4.90;99.90
27667;DHT22;15074;50.940;5.282;2022-11-20T02:52:44;4.70;99.90
27667;DHT22;15074;50.940;5.282;2022-11-20T02:55:10;4.70;99.90
27667;DHT22;15074;50.940;5.282;2022-11-20T02:57:35;4.60;99.90
27667;DHT22;15074;50.940;5.282;2022-11-20T03:00:03;4.70;99.90
27667;DHT22;15074;50.940;5.282;2022-11-20T03:02:32;4.80;99.90
27667;DHT22;15074;50.940;5.282;2022-11-20T03:04:58;4.70;99.90
27667;DHT22;15074;50.940;5.282;2022-11-20T03:07:24;4.90;99.90
27667;DHT22;15074;50.940;5.282;2022-11-20T03:09:49;4.90;99.90
27667;DHT22;15074;50.940;5.282;2022-11-20T03:12:15;4.80;99.90
27667;DHT22;15074;50.940;5.282;2022-11-20T03:14:41;4.90;99.90
27667;DHT22;15074;50.940;5.282;2022-11-20T03:17:06;4.80;99.90
27667;DHT22;15074;50.940;5.282;2022-11-20T03:19:32;4.80;99.90
27667;DHT22;15074;50.940;5.282;2022-11-20T03:21:58;4.90;99.90
27667;DHT22;15074;50.940;5.282;2022-11-20T03:24:23;4.90;99.90
27667;DHT22;15074;50.940;5.282;2022-11-20T03:26:49;4.90;99.90
27667;DHT22;15074;50.940;5.282;2022-11-20T03:29:14;4.80;99.90
27667;DHT22;15074;50.940;5.282;2022-11-20T03:31:40;4.70;99.90
27667;DHT22;15074;50.940;5.282;2022-11-20T03:34:07;4.70;99.90
27667;DHT22;15074;50.940;5.282;2022-11-20T03:36:33;4.80;99.90
27667;DHT22;15074;50.940;5.282;2022-11-20T03:38:59;4.90;99.90
27667;DHT22;15074;50.940;5.282;2022-11-20T03:41:29;5.00;99.90
27667;DHT22;15074;50.940;5.282;2022-11-20T03:44:00;4.90;99.90
27667;DHT22;15074;50.940;5.282;2022-11-20T03:46:27;4.90;99.90
27667;DHT22;15074;50.940;5.282;2022-11-20T03:48:54;4.70;99.90
27667;DHT22;15074;50.940;5.282;2022-11-20T03:51:22;4.60;99.90
27667;DHT22;15074;50.940;5.282;2022-11-20T03:53:50;4.70;99.90
27667;DHT22;15074;50.940;5.282;2022-11-20T03:56:17;4.70;99.90
27667;DHT22;15074;50.940;5.282;2022-11-20T03:58:43;4.40;99.90
27667;DHT22;15074;50.940;5.282;2022-11-20T04:01:21;4.30;99.90
27667;DHT22;15074;50.940;5.282;2022-11-20T04:03:47;4.40;99.90
27667;DHT22;15074;50.940;5.282;2022-11-20T04:06:15;4.40;99.90
27667;DHT22;15074;50.940;5.282;2022-11-20T04:08:41;4.40;99.90
27667;DHT22;15074;50.940;5.282;2022-11-20T04:11:21;4.30;99.90
27667;DHT22;15074;50.940;5.282;2022-11-20T04:13:50;4.20;99.90
27667;DHT22;15074;50.940;5.282;2022-11-20T04:16:17;4.10;99.90
27667;DHT22;15074;50.940;5.282;2022-11-20T04:18:44;4.10;99.90
27667;DHT22;15074;50.940;5.282;2022-11-20T04:21:10;4.20;99.90
27667;DHT22;15074;50.940;5.282;2022-11-20T04:23:36;4.10;99.90
27667;DHT22;15074;50.940;5.282;2022-11-20T04:26:05;4.10;99.90
27667;DHT22;15074;50.940;5.282;2022-11-20T04:28:30;4.20;99.90
27667;DHT22;15074;50.940;5.282;2022-11-20T04:31:17;4.20;99.90
27667;DHT22;15074;50.940;5.282;2022-11-20T04:33:43;4.30;99.90
27667;DHT22;15074;50.940;5.282;2022-11-20T04:36:20;4.30;99.90
27667;DHT22;15074;50.940;5.282;2022-11-20T04:38:50;4.30;99.90
27667;DHT22;15074;50.940;5.282;2022-11-20T04:41:18;4.30;99.90
27667;DHT22;15074;50.940;5.282;2022-11-20T04:43:48;4.30;99.90
27667;DHT22;15074;50.940;5.282;2022-11-20T04:46:15;4.30;99.90
27667;DHT22;15074;50.940;5.282;2022-11-20T04:48:41;4.30;99.90
27667;DHT22;15074;50.940;5.282;2022-11-20T04:51:06;4.10;99.90
27667;DHT22;15074;50.940;5.282;2022-11-20T04:53:32;4.20;99.90
27667;DHT22;15074;50.940;5.282;2022-11-20T04:56:02;4.30;99.90
27667;DHT22;15074;50.940;5.282;2022-11-20T04:58:28;4.20;99.90
27667;DHT22;15074;50.940;5.282;2022-11-20T05:01:01;4.30;99.90
27667;DHT22;15074;50.940;5.282;2022-11-20T05:03:27;4.30;99.90
27667;DHT22;15074;50.940;5.282;2022-11-20T05:05:52;4.20;99.90
27667;DHT22;15074;50.940;5.282;2022-11-20T05:08:18;4.30;99.90
27667;DHT22;15074;50.940;5.282;2022-11-20T05:10:43;4.40;99.90
27667;DHT22;15074;50.940;5.282;2022-11-20T05:13:09;4.30;99.90
27667;DHT22;15074;50.940;5.282;2022-11-20T05:15:35;4.20;99.90
27667;DHT22;15074;50.940;5.282;2022-11-20T05:18:00;4.30;99.90
27667;DHT22;15074;50.940;5.282;2022-11-20T05:20:26;4.30;99.90
27667;DHT22;15074;50.940;5.282;2022-11-20T05:22:51;4.20;99.90
27667;DHT22;15074;50.940;5.282;2022-11-20T05:25:17;4.10;99.90
27667;DHT22;15074;50.940;5.282;2022-11-20T05:27:43;4.20;99.90
27667;DHT22;15074;50.940;5.282;2022-11-20T05:30:09;4.10;99.90
27667;DHT22;15074;50.940;5.282;2022-11-20T05:32:35;4.00;99.90
27667;DHT22;15074;50.940;5.282;2022-11-20T05:35:00;4.00;99.90
27667;DHT22;15074;50.940;5.282;2022-11-20T05:37:26;4.00;99.90
27667;DHT22;15074;50.940;5.282;2022-11-20T05:39:51;4.20;99.90
27667;DHT22;15074;50.940;5.282;2022-11-20T05:42:17;4.20;99.90
27667;DHT22;15074;50.940;5.282;2022-11-20T05:44:59;4.20;99.90
27667;DHT22;15074;50.940;5.282;2022-11-20T05:47:25;4.20;99.90
27667;DHT22;15074;50.940;5.282;2022-11-20T05:49:51;4.20;99.90
27667;DHT22;15074;50.940;5.282;2022-11-20T05:52:17;4.30;99.90
27667;DHT22;15074;50.940;5.282;2022-11-20T05:54:43;4.30;99.90
27667;DHT22;15074;50.940;5.282;2022-11-20T05:57:08;4.30;99.90
27667;DHT22;15074;50.940;5.282;2022-11-20T05:59:34;4.30;99.90
27667;DHT22;15074;50.940;5.282;2022-11-20T06:02:00;4.30;99.90
27667;DHT22;15074;50.940;5.282;2022-11-20T06:04:25;4.30;99.90
27667;DHT22;15074;50.940;5.282;2022-11-20T06:06:51;4.40;99.90
27667;DHT22;15074;50.940;5.282;2022-11-20T06:09:16;4.60;99.90
27667;DHT22;15074;50.940;5.282;2022-11-20T06:11:42;4.60;99.90
27667;DHT22;15074;50.940;5.282;2022-11-20T06:14:08;4.60;99.90
27667;DHT22;15074;50.940;5.282;2022-11-20T06:16:33;4.50;99.90
27667;DHT22;15074;50.940;5.282;2022-11-20T06:18:59;4.50;99.90
27667;DHT22;15074;50.940;5.282;2022-11-20T06:21:25;4.50;99.90
27667;DHT22;15074;50.940;5.282;2022-11-20T06:23:51;4.50;99.90
27667;DHT22;15074;50.940;5.282;2022-11-20T06:26:23;4.40;99.90
27667;DHT22;15074;50.940;5.282;2022-11-20T06:28:50;4.40;99.90
27667;DHT22;15074;50.940;5.282;2022-11-20T06:31:19;4.30;99.90
27667;DHT22;15074;50.940;5.282;2022-11-20T06:33:45;4.20;99.90
27667;DHT22;15074;50.940;5.282;2022-11-20T06:36:12;4.30;99.90
27667;DHT22;15074;50.940;5.282;2022-11-20T06:38:39;4.40;99.90
27667;DHT22;15074;50.940;5.282;2022-11-20T06:41:11;4.50;99.90
27667;DHT22;15074;50.940;5.282;2022-11-20T06:43:36;4.40;99.90
27667;DHT22;15074;50.940;5.282;2022-11-20T06:46:02;4.40;99.90
27667;DHT22;15074;50.940;5.282;2022-11-20T06:48:29;4.30;99.90
27667;DHT22;15074;50.940;5.282;2022-11-20T06:50:57;4.10;99.90
27667;DHT22;15074;50.940;5.282;2022-11-20T06:53:23;3.90;99.90
27667;DHT22;15074;50.940;5.282;2022-11-20T07:09:34;4.00;99.90
27667;DHT22;15074;50.940;5.282;2022-11-20T07:12:00;3.90;99.90
27667;DHT22;15074;50.940;5.282;2022-11-20T07:14:25;3.80;99.90
27667;DHT22;15074;50.940;5.282;2022-11-20T08:13:16;4.30;99.90
27667;DHT22;15074;50.940;5.282;2022-11-20T08:16:00;4.40;99.90
27667;DHT22;15074;50.940;5.282;2022-11-20T08:18:26;4.40;99.90
27667;DHT22;15074;50.940;5.282;2022-11-20T08:20:51;4.40;99.90
27667;DHT22;15074;50.940;5.282;2022-11-20T08:23:17;4.50;99.90
27667;DHT22;15074;50.940;5.282;2022-11-20T08:25:43;4.50;99.90
27667;DHT22;15074;50.940;5.282;2022-11-20T08:28:09;4.50;99.90
27667;DHT22;15074;50.940;5.282;2022-11-20T08:30:36;4.50;99.90
27667;DHT22;15074;50.940;5.282;2022-11-20T08:33:10;4.60;99.90
27667;DHT22;15074;50.940;5.282;2022-11-20T08:35:36;4.50;99.90
27667;DHT22;15074;50.940;5.282;2022-11-20T08:38:04;4.40;99.90
27667;DHT22;15074;50.940;5.282;2022-11-20T08:40:30;4.50;99.90
27667;DHT22;15074;50.940;5.282;2022-11-20T08:42:55;4.50;99.90
27667;DHT22;15074;50.940;5.282;2022-11-20T08:45:21;4.50;99.90
27667;DHT22;15074;50.940;5.282;2022-11-20T08:47:47;4.60;99.90
27667;DHT22;15074;50.940;5.282;2022-11-20T08:50:14;4.60;99.90
27667;DHT22;15074;50.940;5.282;2022-11-20T08:52:41;4.60;99.90
27667;DHT22;15074;50.940;5.282;2022-11-20T08:55:07;4.60;99.90
27667;DHT22;15074;50.940;5.282;2022-11-20T08:57:37;4.80;99.90
27667;DHT22;15074;50.940;5.282;2022-11-20T09:00:04;4.80;99.90
27667;DHT22;15074;50.940;5.282;2022-11-20T09:02:31;4.80;99.90
27667;DHT22;15074;50.940;5.282;2022-11-20T09:04:57;4.90;99.90
27667;DHT22;15074;50.940;5.282;2022-11-20T09:07:23;5.00;99.90
27667;DHT22;15074;50.940;5.282;2022-11-20T09:09:49;5.10;99.90
27667;DHT22;15074;50.940;5.282;2022-11-20T09:12:14;5.10;99.90
27667;DHT22;15074;50.940;5.282;2022-11-20T09:14:40;5.10;99.90
27667;DHT22;15074;50.940;5.282;2022-11-20T09:17:06;5.10;99.90
27667;DHT22;15074;50.940;5.282;2022-11-20T09:19:33;5.10;99.90
27667;DHT22;15074;50.940;5.282;2022-11-20T09:21:59;5.20;99.90
27667;DHT22;15074;50.940;5.282;2022-11-20T09:24:26;5.20;99.90
27667;DHT22;15074;50.940;5.282;2022-11-20T09:26:51;5.30;99.90
27667;DHT22;15074;50.940;5.282;2022-11-20T09:29:17;5.30;99.90
27667;DHT22;15074;50.940;5.282;2022-11-20T09:31:43;5.40;99.90
27667;DHT22;15074;50.940;5.282;2022-11-20T09:34:08;5.50;99.90
27667;DHT22;15074;50.940;5.282;2022-11-20T09:36:35;5.60;99.90
27667;DHT22;15074;50.940;5.282;2022-11-20T09:39:01;5.90;99.90
27667;DHT22;15074;50.940;5.282;2022-11-20T09:46:37;5.70;99.90
27667;DHT22;15074;50.940;5.282;2022-11-20T09:54:43;5.90;99.90
27667;DHT22;15074;50.940;5.282;2022-11-20T09:57:15;5.90;99.90
27667;DHT22;15074;50.940;5.282;2022-11-20T09:59:48;5.80;99.90
27667;DHT22;15074;50.940;5.282;2022-11-20T10:02:30;5.70;99.90
27667;DHT22;15074;50.940;5.282;2022-11-20T10:05:25;5.70;99.90
27667;DHT22;15074;50.940;5.282;2022-11-20T10:07:53;5.80;99.90
27667;DHT22;15074;50.940;5.282;2022-11-20T10:10:44;5.70;99.90
27667;DHT22;15074;50.940;5.282;2022-11-20T10:13:23;5.70;99.90
27667;DHT22;15074;50.940;5.282;2022-11-20T10:32:24;6.00;99.90
27667;DHT22;15074;50.940;5.282;2022-11-20T10:48:04;6.30;99.90
27667;DHT22;15074;50.940;5.282;2022-11-20T10:50:55;6.30;99.90
27667;DHT22;15074;50.940;5.282;2022-11-20T10:56:33;6.50;99.90
27667;DHT22;15074;50.940;5.282;2022-11-20T11:02:01;6.50;99.90
27667;DHT22;15074;50.940;5.282;2022-11-20T11:06:56;6.80;99.90
27667;DHT22;15074;50.940;5.282;2022-11-20T11:09:34;6.90;99.90
27667;DHT22;15074;50.940;5.282;2022-11-20T11:12:01;7.00;99.90
27667;DHT22;15074;50.940;5.282;2022-11-20T11:14:26;7.00;99.90
27667;DHT22;15074;50.940;5.282;2022-11-20T11:16:55;7.10;99.90
27667;DHT22;15074;50.940;5.282;2022-11-20T11:19:20;7.10;99.90
27667;DHT22;15074;50.940;5.282;2022-11-20T11:21:54;7.10;99.90
27667;DHT22;15074;50.940;5.282;2022-11-20T11:24:28;7.10;99.90
27667;DHT22;15074;50.940;5.282;2022-11-20T11:26:59;7.20;99.90
27667;DHT22;15074;50.940;5.282;2022-11-20T11:29:30;7.20;99.90
27667;DHT22;15074;50.940;5.282;2022-11-20T11:32:12;7.20;99.90
27667;DHT22;15074;50.940;5.282;2022-11-20T11:34:38;7.30;99.90
27667;DHT22;15074;50.940;5.282;2022-11-20T11:37:04;7.40;99.90
27667;DHT22;15074;50.940;5.282;2022-11-20T11:43:17;7.40;99.90
27667;DHT22;15074;50.940;5.282;2022-11-20T11:46:02;7.40;99.90
27667;DHT22;15074;50.940;5.282;2022-11-20T11:48:31;7.60;99.90
27667;DHT22;15074;50.940;5.282;2022-11-20T11:50:56;7.80;99.90
27667;DHT22;15074;50.940;5.282;2022-11-20T11:53:23;7.80;99.90
27667;DHT22;15074;50.940;5.282;2022-11-20T11:55:56;7.80;99.90
27667;DHT22;15074;50.940;5.282;2022-11-20T11:58:46;7.90;99.90
27667;DHT22;15074;50.940;5.282;2022-11-20T12:04:17;7.90;99.90
27667;DHT22;15074;50.940;5.282;2022-11-20T12:06:50;8.10;99.90
27667;DHT22;15074;50.940;5.282;2022-11-20T12:09:20;8.30;99.90
27667;DHT22;15074;50.940;5.282;2022-11-20T12:11:58;8.40;99.90
27667;DHT22;15074;50.940;5.282;2022-11-20T12:14:35;8.50;99.90
27667;DHT22;15074;50.940;5.282;2022-11-20T12:17:02;8.60;99.90
27667;DHT22;15074;50.940;5.282;2022-11-20T12:19:31;8.70;99.90
27667;DHT22;15074;50.940;5.282;2022-11-20T12:22:40;8.90;99.90
27667;DHT22;15074;50.940;5.282;2022-11-20T12:30:17;8.90;99.90
27667;DHT22;15074;50.940;5.282;2022-11-20T12:41:42;9.40;99.90
27667;DHT22;15074;50.940;5.282;2022-11-20T12:52:51;9.60;99.90
27667;DHT22;15074;50.940;5.282;2022-11-20T13:01:20;9.60;99.90
27667;DHT22;15074;50.940;5.282;2022-11-20T13:04:32;9.60;99.90
27667;DHT22;15074;50.940;5.282;2022-11-20T13:06:53;9.70;99.90
27667;DHT22;15074;50.940;5.282;2022-11-20T13:09:20;9.70;99.90
27667;DHT22;15074;50.940;5.282;2022-11-20T13:12:15;9.60;99.90
27667;DHT22;15074;50.940;5.282;2022-11-20T13:17:59;9.40;99.90
27667;DHT22;15074;50.940;5.282;2022-11-20T13:20:26;9.20;99.90
27667;DHT22;15074;50.940;5.282;2022-11-20T13:22:54;8.90;99.90
27667;DHT22;15074;50.940;5.282;2022-11-20T13:25:27;8.80;99.90
27667;DHT22;15074;50.940;5.282;2022-11-20T13:27:54;8.60;99.90
27667;DHT22;15074;50.940;5.282;2022-11-20T13:30:25;8.40;99.90
27667;DHT22;15074;50.940;5.282;2022-11-20T13:32:58;8.30;99.90
27667;DHT22;15074;50.940;5.282;2022-11-20T13:35:36;8.20;99.90
27667;DHT22;15074;50.940;5.282;2022-11-20T13:38:11;8.10;99.90
27667;DHT22;15074;50.940;5.282;2022-11-20T13:40:59;8.10;99.90
27667;DHT22;15074;50.940;5.282;2022-11-20T13:43:44;8.10;99.90
27667;DHT22;15074;50.940;5.282;2022-11-20T13:46:12;7.90;99.90
27667;DHT22;15074;50.940;5.282;2022-11-20T13:48:43;7.90;99.90
27667;DHT22;15074;50.940;5.282;2022-11-20T13:53:57;7.80;99.90
27667;DHT22;15074;50.940;5.282;2022-11-20T13:56:35;7.70;99.90
27667;DHT22;15074;50.940;5.282;2022-11-20T14:01:48;7.60;99.90
27667;DHT22;15074;50.940;5.282;2022-11-20T14:04:19;7.50;99.90
27667;DHT22;15074;50.940;5.282;2022-11-20T14:06:48;7.60;99.90
27667;DHT22;15074;50.940;5.282;2022-11-20T14:09:29;7.60;99.90
27667;DHT22;15074;50.940;5.282;2022-11-20T14:11:54;7.50;99.90
27667;DHT22;15074;50.940;5.282;2022-11-20T14:14:22;7.50;99.90
27667;DHT22;15074;50.940;5.282;2022-11-20T14:16:50;7.50;99.90
27667;DHT22;15074;50.940;5.282;2022-11-20T14:22:05;7.50;99.90
27667;DHT22;15074;50.940;5.282;2022-11-20T14:24:31;7.50;99.90
27667;DHT22;15074;50.940;5.282;2022-11-20T14:26:57;7.50;99.90
27667;DHT22;15074;50.940;5.282;2022-11-20T14:29:44;7.50;99.90
27667;DHT22;15074;50.940;5.282;2022-11-20T14:32:10;7.40;99.90
27667;DHT22;15074;50.940;5.282;2022-11-20T14:34:39;7.40;99.90
27667;DHT22;15074;50.940;5.282;2022-11-20T14:37:10;7.40;99.90
27667;DHT22;15074;50.940;5.282;2022-11-20T14:39:41;7.40;99.90
27667;DHT22;15074;50.940;5.282;2022-11-20T14:42:21;7.30;99.90
27667;DHT22;15074;50.940;5.282;2022-11-20T14:44:48;7.30;99.90
27667;DHT22;15074;50.940;5.282;2022-11-20T14:47:18;7.30;99.90
27667;DHT22;15074;50.940;5.282;2022-11-20T14:49:44;7.30;99.90
27667;DHT22;15074;50.940;5.282;2022-11-20T14:52:22;7.30;99.90
27667;DHT22;15074;50.940;5.282;2022-11-20T14:54:53;7.20;99.90
27667;DHT22;15074;50.940;5.282;2022-11-20T14:57:34;7.20;99.90
27667;DHT22;15074;50.940;5.282;2022-11-20T15:02:45;7.20;99.90
27667;DHT22;15074;50.940;5.282;2022-11-20T15:05:13;7.20;99.90
27667;DHT22;15074;50.940;5.282;2022-11-20T15:07:41;7.30;99.90
27667;DHT22;15074;50.940;5.282;2022-11-20T15:10:13;7.30;99.90
27667;DHT22;15074;50.940;5.282;2022-11-20T15:12:49;7.30;99.90
27667;DHT22;15074;50.940;5.282;2022-11-20T15:15:22;7.30;99.90
27667;DHT22;15074;50.940;5.282;2022-11-20T15:17:49;7.30;99.90
27667;DHT22;15074;50.940;5.282;2022-11-20T15:20:16;7.30;99.90
27667;DHT22;15074;50.940;5.282;2022-11-20T15:22:42;7.30;99.90
27667;DHT22;15074;50.940;5.282;2022-11-20T15:25:16;7.40;99.90
27667;DHT22;15074;50.940;5.282;2022-11-20T15:27:43;7.40;99.90
27667;DHT22;15074;50.940;5.282;2022-11-20T15:30:15;7.30;99.90
27667;DHT22;15074;50.940;5.282;2022-11-20T15:32:42;7.40;99.90
27667;DHT22;15074;50.940;5.282;2022-11-20T15:35:09;7.40;99.90
27667;DHT22;15074;50.940;5.282;2022-11-20T15:37:35;7.40;99.90
27667;DHT22;15074;50.940;5.282;2022-11-20T15:40:01;7.40;99.90
27667;DHT22;15074;50.940;5.282;2022-11-20T15:42:27;7.50;99.90
27667;DHT22;15074;50.940;5.282;2022-11-20T15:44:53;7.50;99.90
27667;DHT22;15074;50.940;5.282;2022-11-20T15:47:23;7.50;99.90
27667;DHT22;15074;50.940;5.282;2022-11-20T15:49:51;7.50;99.90
27667;DHT22;15074;50.940;5.282;2022-11-20T15:52:16;7.60;99.90
27667;DHT22;15074;50.940;5.282;2022-11-20T15:54:42;7.60;99.90
27667;DHT22;15074;50.940;5.282;2022-11-20T15:57:07;7.60;99.90
27667;DHT22;15074;50.940;5.282;2022-11-20T15:59:33;7.70;99.90
27667;DHT22;15074;50.940;5.282;2022-11-20T16:01:59;7.70;99.90
27667;DHT22;15074;50.940;5.282;2022-11-20T16:04:25;7.60;99.90
27667;DHT22;15074;50.940;5.282;2022-11-20T16:06:51;7.60;99.90
27667;DHT22;15074;50.940;5.282;2022-11-20T16:09:16;7.70;99.90
27667;DHT22;15074;50.940;5.282;2022-11-20T16:11:42;7.60;99.90
27667;DHT22;15074;50.940;5.282;2022-11-20T16:14:10;7.70;99.90
27667;DHT22;15074;50.940;5.282;2022-11-20T16:16:54;7.80;99.90
27667;DHT22;15074;50.940;5.282;2022-11-20T16:19:20;7.80;99.90
27667;DHT22;15074;50.940;5.282;2022-11-20T16:21:46;7.80;99.90
27667;DHT22;15074;50.940;5.282;2022-11-20T16:24:13;7.80;99.90
27667;DHT22;15074;50.940;5.282;2022-11-20T16:26:40;7.90;99.90
27667;DHT22;15074;50.940;5.282;2022-11-20T16:29:06;8.00;99.90
27667;DHT22;15074;50.940;5.282;2022-11-20T16:31:32;8.00;99.90
27667;DHT22;15074;50.940;5.282;2022-11-20T16:34:01;8.10;99.90
27667;DHT22;15074;50.940;5.282;2022-11-20T16:36:27;8.10;99.90
27667;DHT22;15074;50.940;5.282;2022-11-20T16:38:55;8.20;99.90
27667;DHT22;15074;50.940;5.282;2022-11-20T16:41:21;8.20;99.90
27667;DHT22;15074;50.940;5.282;2022-11-20T16:43:51;8.10;99.90
27667;DHT22;15074;50.940;5.282;2022-11-20T16:46:20;8.20;99.90
27667;DHT22;15074;50.940;5.282;2022-11-20T16:49:11;8.20;99.90
27667;DHT22;15074;50.940;5.282;2022-11-20T16:51:37;8.30;99.90
27667;DHT22;15074;50.940;5.282;2022-11-20T16:54:04;8.20;99.90
27667;DHT22;15074;50.940;5.282;2022-11-20T16:56:30;8.20;99.90
27667;DHT22;15074;50.940;5.282;2022-11-20T16:58:58;8.20;99.90
27667;DHT22;15074;50.940;5.282;2022-11-20T17:01:25;8.20;99.90
27667;DHT22;15074;50.940;5.282;2022-11-20T17:04:00;8.30;99.90
27667;DHT22;15074;50.940;5.282;2022-11-20T17:06:28;8.20;99.90
27667;DHT22;15074;50.940;5.282;2022-11-20T17:08:55;8.20;99.90
27667;DHT22;15074;50.940;5.282;2022-11-20T17:11:21;8.20;99.90
27667;DHT22;15074;50.940;5.282;2022-11-20T17:13:48;8.20;99.90
27667;DHT22;15074;50.940;5.282;2022-11-20T17:16:19;8.20;99.90
27667;DHT22;15074;50.940;5.282;2022-11-20T17:18:45;8.00;99.90
27667;DHT22;15074;50.940;5.282;2022-11-20T17:21:12;8.00;99.90
27667;DHT22;15074;50.940;5.282;2022-11-20T17:23:40;8.00;99.90
27667;DHT22;15074;50.940;5.282;2022-11-20T17:26:11;8.00;99.90
27667;DHT22;15074;50.940;5.282;2022-11-20T17:28:39;7.90;99.90
27667;DHT22;15074;50.940;5.282;2022-11-20T17:31:15;7.90;99.90
27667;DHT22;15074;50.940;5.282;2022-11-20T17:33:43;7.80;99.90
27667;DHT22;15074;50.940;5.282;2022-11-20T17:36:11;7.80;99.90
27667;DHT22;15074;50.940;5.282;2022-11-20T17:38:37;7.80;99.90
27667;DHT22;15074;50.940;5.282;2022-11-20T17:41:04;7.80;99.90
27667;DHT22;15074;50.940;5.282;2022-11-20T17:43:31;7.80;99.90
27667;DHT22;15074;50.940;5.282;2022-11-20T17:45:57;7.70;99.90
27667;DHT22;15074;50.940;5.282;2022-11-20T17:48:23;7.70;99.90
27667;DHT22;15074;50.940;5.282;2022-11-20T17:50:49;7.60;99.90
27667;DHT22;15074;50.940;5.282;2022-11-20T17:53:15;7.60;99.90
27667;DHT22;15074;50.940;5.282;2022-11-20T17:55:41;7.70;99.90
27667;DHT22;15074;50.940;5.282;2022-11-20T17:58:45;7.80;99.90
27667;DHT22;15074;50.940;5.282;2022-11-20T18:01:11;7.80;99.90
27667;DHT22;15074;50.940;5.282;2022-11-20T18:03:36;7.90;99.90
27667;DHT22;15074;50.940;5.282;2022-11-20T18:08:34;7.90;99.90
27667;DHT22;15074;50.940;5.282;2022-11-20T18:11:08;8.00;99.90
27667;DHT22;15074;50.940;5.282;2022-11-20T18:13:34;8.00;99.90
27667;DHT22;15074;50.940;5.282;2022-11-20T18:16:20;7.90;99.90
27667;DHT22;15074;50.940;5.282;2022-11-20T18:18:46;7.90;99.90
27667;DHT22;15074;50.940;5.282;2022-11-20T18:21:11;8.00;99.90
27667;DHT22;15074;50.940;5.282;2022-11-20T18:23:37;7.90;99.90
27667;DHT22;15074;50.940;5.282;2022-11-20T18:26:03;7.90;99.90
27667;DHT22;15074;50.940;5.282;2022-11-20T18:28:28;7.80;99.90
27667;DHT22;15074;50.940;5.282;2022-11-20T18:30:54;7.80;99.90
27667;DHT22;15074;50.940;5.282;2022-11-20T18:33:19;7.70;99.90
27667;DHT22;15074;50.940;5.282;2022-11-20T18:35:45;7.60;99.90
27667;DHT22;15074;50.940;5.282;2022-11-20T18:38:11;7.60;99.90
27667;DHT22;15074;50.940;5.282;2022-11-20T18:40:36;7.50;99.90
27667;DHT22;15074;50.940;5.282;2022-11-20T18:43:02;7.50;99.90
27667;DHT22;15074;50.940;5.282;2022-11-20T18:45:46;7.40;99.90
27667;DHT22;15074;50.940;5.282;2022-11-20T18:48:12;7.40;99.90
27667;DHT22;15074;50.940;5.282;2022-11-20T18:50:37;7.30;99.90
27667;DHT22;15074;50.940;5.282;2022-11-20T18:53:03;7.30;99.90
27667;DHT22;15074;50.940;5.282;2022-11-20T18:55:28;7.30;99.90
27667;DHT22;15074;50.940;5.282;2022-11-20T18:57:54;7.20;99.90
27667;DHT22;15074;50.940;5.282;2022-11-20T19:00:20;7.20;99.90
27667;DHT22;15074;50.940;5.282;2022-11-20T19:02:46;7.20;99.90
27667;DHT22;15074;50.940;5.282;2022-11-20T19:05:13;7.20;99.90
27667;DHT22;15074;50.940;5.282;2022-11-20T19:07:39;7.10;99.90
27667;DHT22;15074;50.940;5.282;2022-11-20T19:10:06;7.10;99.90
27667;DHT22;15074;50.940;5.282;2022-11-20T19:12:32;7.10;99.90
27667;DHT22;15074;50.940;5.282;2022-11-20T19:14:57;7.00;99.90
27667;DHT22;15074;50.940;5.282;2022-11-20T19:17:23;7.00;99.90
27667;DHT22;15074;50.940;5.282;2022-11-20T19:19:49;6.90;99.90
27667;DHT22;15074;50.940;5.282;2022-11-20T19:22:15;6.90;99.90
27667;DHT22;15074;50.940;5.282;2022-11-20T19:24:41;6.90;99.90
27667;DHT22;15074;50.940;5.282;2022-11-20T19:27:07;6.90;99.90
27667;DHT22;15074;50.940;5.282;2022-11-20T19:29:32;6.90;99.90
27667;DHT22;15074;50.940;5.282;2022-11-20T19:31:58;6.90;99.90
27667;DHT22;15074;50.940;5.282;2022-11-20T19:34:24;6.90;99.90
27667;DHT22;15074;50.940;5.282;2022-11-20T19:36:50;6.90;99.90